createdAt,value
2024-02-26T00:00:36.137Z,1.50
2024-02-26T00:01:18.099Z,1.50
2024-02-26T00:02:00.272Z,1.42
2024-02-26T00:02:42.872Z,1.40
2024-02-26T00:03:24.917Z,1.48
2024-02-26T00:04:06.944Z,1.60
2024-02-26T00:04:48.912Z,1.60
2024-02-26T00:05:32.664Z,1.45
2024-02-26T00:06:15.125Z,1.50
2024-02-26T00:06:57.334Z,1.50
2024-02-26T00:07:40.083Z,1.20
2024-02-26T00:08:21.974Z,1.30
2024-02-26T00:09:07.039Z,1.40
2024-02-26T00:09:48.858Z,1.60
2024-02-26T00:10:30.685Z,1.50
2024-02-26T00:11:12.896Z,1.30
2024-02-26T00:11:56.105Z,1.60
2024-02-26T00:12:40.559Z,1.60
2024-02-26T00:13:23.330Z,1.67
2024-02-26T00:14:06.027Z,1.60
2024-02-26T00:14:49.438Z,1.60
2024-02-26T00:15:31.742Z,1.60
2024-02-26T00:16:13.591Z,1.80
2024-02-26T00:16:55.539Z,1.60
2024-02-26T00:17:37.742Z,1.80
2024-02-26T00:18:19.920Z,1.80
2024-02-26T00:19:02.019Z,1.90
2024-02-26T00:19:43.995Z,1.55
2024-02-26T00:20:26.001Z,1.50
2024-02-26T00:21:07.917Z,1.80
2024-02-26T00:21:52.459Z,1.60
2024-02-26T00:22:34.440Z,1.60
2024-02-26T00:23:17.335Z,1.65
2024-02-26T00:23:59.311Z,1.58
2024-02-26T00:24:42.577Z,1.40
2024-02-26T00:25:24.518Z,1.60
2024-02-26T00:26:06.318Z,1.65
2024-02-26T00:26:53.970Z,1.45
2024-02-26T00:27:36.129Z,1.60
2024-02-26T00:28:18.114Z,1.60
2024-02-26T00:29:00.050Z,1.52
2024-02-26T00:29:42.078Z,1.88
2024-02-26T00:30:24.445Z,1.48
2024-02-26T00:31:06.820Z,1.55
2024-02-26T00:31:48.822Z,1.40
2024-02-26T00:32:30.903Z,1.48
2024-02-26T00:33:12.817Z,1.60
2024-02-26T00:33:55.161Z,1.70
2024-02-26T00:34:37.160Z,1.30
2024-02-26T00:35:21.594Z,1.60
2024-02-26T00:36:03.686Z,1.70
2024-02-26T00:36:45.571Z,1.40
2024-02-26T00:37:27.344Z,1.33
2024-02-26T00:38:09.413Z,1.60
2024-02-26T00:38:54.168Z,1.60
2024-02-26T00:39:36.056Z,1.90
2024-02-26T00:40:17.878Z,2.00
2024-02-26T00:41:00.532Z,1.50
2024-02-26T00:41:42.793Z,1.60
2024-02-26T00:42:24.955Z,1.40
2024-02-26T00:43:06.756Z,1.40
2024-02-26T00:43:48.638Z,1.40
2024-02-26T00:44:30.543Z,1.35
2024-02-26T00:45:13.044Z,1.60
2024-02-26T00:45:55.038Z,1.60
2024-02-26T00:46:37.389Z,1.30
2024-02-26T00:47:19.524Z,1.30
2024-02-26T00:48:05.725Z,1.60
2024-02-26T00:48:47.697Z,1.65
2024-02-26T00:49:29.985Z,1.40
2024-02-26T00:50:12.102Z,1.60
2024-02-26T00:50:53.928Z,1.30
2024-02-26T00:51:35.906Z,1.60
2024-02-26T00:52:20.757Z,1.20
2024-02-26T00:53:05.725Z,1.10
2024-02-26T00:53:47.514Z,1.27
2024-02-26T00:54:29.627Z,1.40
2024-02-26T00:55:11.513Z,1.50
2024-02-26T00:55:53.705Z,1.90
2024-02-26T00:56:35.591Z,1.40
2024-02-26T00:57:17.536Z,1.40
2024-02-26T00:57:59.716Z,1.40
2024-02-26T00:58:41.602Z,1.50
2024-02-26T00:59:23.473Z,1.40
2024-02-26T01:00:06.521Z,1.60
2024-02-26T01:00:48.694Z,1.80
2024-02-26T01:01:30.691Z,1.63
2024-02-26T01:02:12.497Z,1.50
2024-02-26T01:02:54.368Z,1.70
2024-02-26T01:03:36.604Z,1.50
2024-02-26T01:04:18.676Z,1.35
2024-02-26T01:05:00.677Z,1.40
2024-02-26T01:05:43.205Z,1.20
2024-02-26T01:06:25.224Z,1.30
2024-02-26T01:07:07.428Z,1.60
2024-02-26T01:07:49.747Z,1.38
2024-02-26T01:08:32.876Z,1.40
2024-02-26T01:09:15.087Z,1.40
2024-02-26T01:09:56.873Z,1.23
2024-02-26T01:10:38.916Z,1.13
2024-02-26T01:11:20.992Z,1.30
2024-02-26T01:12:03.843Z,1.23
2024-02-26T01:12:46.537Z,1.58
2024-02-26T01:13:28.915Z,1.40
2024-02-26T01:14:10.795Z,1.65
2024-02-26T01:14:52.619Z,1.70
2024-02-26T01:15:34.706Z,1.40
2024-02-26T01:16:16.551Z,1.50
2024-02-26T01:16:58.431Z,1.42
2024-02-26T01:17:40.387Z,1.33
2024-02-26T01:18:23.559Z,1.30
2024-02-26T01:19:05.769Z,1.17
2024-02-26T01:19:47.588Z,1.30
2024-02-26T01:20:29.573Z,1.60
2024-02-26T01:21:11.709Z,1.50
2024-02-26T01:21:54.384Z,1.30
2024-02-26T01:22:36.530Z,1.55
2024-02-26T01:23:18.615Z,1.38
2024-02-26T01:24:02.145Z,1.30
2024-02-26T01:24:43.956Z,1.50
2024-02-26T01:25:26.313Z,1.50
2024-02-26T01:26:08.467Z,1.40
2024-02-26T01:26:50.647Z,1.40
2024-02-26T01:27:32.396Z,1.30
2024-02-26T01:28:14.546Z,1.30
2024-02-26T01:28:56.918Z,1.20
2024-02-26T01:29:42.129Z,1.58
2024-02-26T01:30:24.518Z,1.45
2024-02-26T01:31:08.884Z,1.30
2024-02-26T01:31:50.862Z,1.50
2024-02-26T01:32:33.479Z,1.58
2024-02-26T01:33:15.493Z,1.38
2024-02-26T01:33:57.676Z,1.23
2024-02-26T01:34:39.808Z,1.30
2024-02-26T01:35:21.726Z,1.27
2024-02-26T01:36:03.789Z,1.30
2024-02-26T01:36:45.897Z,1.50
2024-02-26T01:37:28.016Z,1.20
2024-02-26T01:38:09.773Z,1.30
2024-02-26T01:38:51.516Z,1.25
2024-02-26T01:39:33.425Z,1.63
2024-02-26T01:40:19.389Z,1.60
2024-02-26T01:41:01.492Z,1.50
2024-02-26T01:41:43.497Z,1.30
2024-02-26T01:42:25.460Z,1.30
2024-02-26T01:43:07.260Z,1.20
2024-02-26T01:43:49.071Z,1.20
2024-02-26T01:44:31.505Z,1.10
2024-02-26T01:45:17.337Z,1.30
2024-02-26T01:45:59.817Z,1.30
2024-02-26T01:46:41.966Z,1.50
2024-02-26T01:47:24.509Z,1.80
2024-02-26T01:48:07.120Z,1.50
2024-02-26T01:48:51.171Z,1.70
2024-02-26T01:49:35.971Z,1.52
2024-02-26T01:50:19.281Z,1.60
2024-02-26T01:51:01.302Z,1.30
2024-02-26T01:51:44.761Z,1.20
2024-02-26T01:52:27.571Z,1.17
2024-02-26T01:53:10.442Z,1.25
2024-02-26T01:53:52.961Z,1.20
2024-02-26T01:54:37.880Z,1.38
2024-02-26T01:55:20.767Z,1.40
2024-02-26T01:56:03.920Z,1.40
2024-02-26T01:56:45.782Z,1.80
2024-02-26T01:57:28.911Z,1.70
2024-02-26T01:58:11.130Z,1.25
2024-02-26T01:58:52.924Z,1.40
2024-02-26T01:59:36.532Z,1.40
2024-02-26T02:00:19.824Z,1.20
2024-02-26T02:01:02.944Z,1.60
2024-02-26T02:01:49.651Z,1.67
2024-02-26T02:02:31.882Z,1.30
2024-02-26T02:03:14.404Z,1.40
2024-02-26T02:04:04.847Z,1.20
2024-02-26T02:04:47.009Z,1.42
2024-02-26T02:05:29.933Z,1.40
2024-02-26T02:06:13.366Z,1.30
2024-02-26T02:06:55.695Z,1.38
2024-02-26T02:07:38.016Z,1.20
2024-02-26T02:08:20.519Z,1.30
2024-02-26T02:09:07.621Z,1.52
2024-02-26T02:09:49.685Z,1.45
2024-02-26T02:10:31.572Z,1.40
2024-02-26T02:11:15.852Z,1.50
2024-02-26T02:11:58.573Z,1.30
2024-02-26T02:12:41.296Z,1.50
2024-02-26T02:13:23.608Z,1.50
2024-02-26T02:14:05.498Z,1.50
2024-02-26T02:14:49.479Z,1.58
2024-02-26T02:15:33.928Z,1.50
2024-02-26T02:16:18.469Z,1.40
2024-02-26T02:17:00.688Z,1.52
2024-02-26T02:17:42.850Z,1.52
2024-02-26T02:18:24.848Z,1.40
2024-02-26T02:19:06.792Z,1.20
2024-02-26T02:19:48.743Z,1.30
2024-02-26T02:20:37.927Z,1.38
2024-02-26T02:21:20.030Z,1.05
2024-02-26T02:22:02.543Z,1.20
2024-02-26T02:22:45.678Z,1.30
2024-02-26T02:23:27.693Z,1.23
2024-02-26T02:24:09.754Z,1.30
2024-02-26T02:24:53.559Z,1.20
2024-02-26T02:25:35.589Z,1.30
2024-02-26T02:26:18.629Z,1.50
2024-02-26T02:27:00.992Z,1.20
2024-02-26T02:27:44.388Z,1.30
2024-02-26T02:28:28.593Z,1.35
2024-02-26T02:29:11.030Z,1.10
2024-02-26T02:29:53.290Z,1.20
2024-02-26T02:30:36.926Z,1.42
2024-02-26T02:31:19.560Z,1.30
2024-02-26T02:32:03.168Z,1.10
2024-02-26T02:32:45.879Z,1.30
2024-02-26T02:33:28.718Z,1.30
2024-02-26T02:34:11.565Z,1.20
2024-02-26T02:34:53.638Z,1.20
2024-02-26T02:35:35.592Z,1.17
2024-02-26T02:36:17.711Z,1.20
2024-02-26T02:36:59.592Z,1.38
2024-02-26T02:37:41.543Z,1.30
2024-02-26T02:38:24.980Z,1.30
2024-02-26T02:39:07.146Z,1.40
2024-02-26T02:39:49.392Z,1.40
2024-02-26T02:40:31.739Z,1.60
2024-02-26T02:41:13.595Z,1.40
2024-02-26T02:41:55.367Z,1.35
2024-02-26T02:42:39.716Z,1.40
2024-02-26T02:43:21.836Z,1.60
2024-02-26T02:44:03.961Z,1.60
2024-02-26T02:44:46.115Z,1.40
2024-02-26T02:45:27.949Z,1.30
2024-02-26T02:46:10.088Z,1.30
2024-02-26T02:46:56.637Z,1.25
2024-02-26T02:47:39.019Z,1.50
2024-02-26T02:48:21.082Z,1.23
2024-02-26T02:49:03.481Z,1.30
2024-02-26T02:49:45.588Z,1.10
2024-02-26T02:50:27.521Z,1.20
2024-02-26T02:51:10.145Z,1.30
2024-02-26T02:51:54.507Z,1.52
2024-02-26T02:52:36.674Z,1.40
2024-02-26T02:53:19.556Z,1.13
2024-02-26T02:54:04.049Z,1.15
2024-02-26T02:54:48.098Z,1.20
2024-02-26T02:55:30.393Z,1.10
2024-02-26T02:56:15.141Z,1.27
2024-02-26T02:56:57.237Z,1.30
2024-02-26T02:57:42.383Z,1.50
2024-02-26T02:58:24.586Z,1.60
2024-02-26T02:59:06.622Z,1.50
2024-02-26T02:59:48.543Z,1.40
2024-02-26T03:00:30.675Z,1.30
2024-02-26T03:01:14.561Z,1.13
2024-02-26T03:01:56.694Z,1.30
2024-02-26T03:02:39.032Z,1.30
2024-02-26T03:03:20.984Z,1.30
2024-02-26T03:04:03.426Z,1.30
2024-02-26T03:04:47.702Z,1.30
2024-02-26T03:05:29.532Z,1.30
2024-02-26T03:06:11.771Z,1.23
2024-02-26T03:06:54.382Z,1.30
2024-02-26T03:07:36.700Z,1.20
2024-02-26T03:08:20.482Z,1.13
2024-02-26T03:09:03.289Z,1.13
2024-02-26T03:09:45.121Z,1.50
2024-02-26T03:10:27.417Z,1.50
2024-02-26T03:11:09.489Z,1.30
2024-02-26T03:11:53.689Z,1.30
2024-02-26T03:12:35.661Z,1.40
2024-02-26T03:13:17.621Z,1.40
2024-02-26T03:13:59.513Z,1.40
2024-02-26T03:14:41.847Z,1.20
2024-02-26T03:15:24.169Z,1.20
2024-02-26T03:16:09.927Z,1.40
2024-02-26T03:16:55.394Z,1.60
2024-02-26T03:17:39.838Z,1.30
2024-02-26T03:18:22.917Z,1.45
2024-02-26T03:19:05.661Z,1.50
2024-02-26T03:19:48.054Z,1.38
2024-02-26T03:20:30.549Z,1.48
2024-02-26T03:21:12.722Z,1.20
2024-02-26T03:21:54.653Z,1.40
2024-02-26T03:22:36.754Z,1.50
2024-02-26T03:23:18.744Z,1.38
2024-02-26T03:24:00.711Z,1.20
2024-02-26T03:24:42.609Z,1.42
2024-02-26T03:25:24.532Z,1.63
2024-02-26T03:26:06.616Z,1.20
2024-02-26T03:26:48.562Z,1.30
2024-02-26T03:27:30.644Z,1.42
2024-02-26T03:28:13.840Z,1.30
2024-02-26T03:28:55.660Z,1.30
2024-02-26T03:29:39.742Z,1.40
2024-02-26T03:30:21.714Z,1.30
2024-02-26T03:31:03.860Z,1.20
2024-02-26T03:31:45.913Z,1.10
2024-02-26T03:32:27.843Z,1.20
2024-02-26T03:33:10.587Z,0.98
2024-02-26T03:33:52.578Z,1.25
2024-02-26T03:34:37.782Z,1.48
2024-02-26T03:35:19.727Z,1.30
2024-02-26T03:36:01.858Z,1.35
2024-02-26T03:36:44.072Z,1.40
2024-02-26T03:37:26.055Z,1.20
2024-02-26T03:38:08.571Z,1.30
2024-02-26T03:38:52.821Z,1.30
2024-02-26T03:39:34.949Z,1.30
2024-02-26T03:40:17.540Z,1.10
2024-02-26T03:40:59.489Z,1.40
2024-02-26T03:41:41.690Z,1.30
2024-02-26T03:42:23.841Z,1.50
2024-02-26T03:43:10.937Z,1.60
2024-02-26T03:43:52.766Z,1.40
2024-02-26T03:44:34.777Z,1.60
2024-02-26T03:45:16.797Z,1.20
2024-02-26T03:45:58.646Z,1.17
2024-02-26T03:46:40.673Z,1.30
2024-02-26T03:47:22.471Z,1.40
2024-02-26T03:48:04.831Z,1.20
2024-02-26T03:48:47.036Z,1.17
2024-02-26T03:49:29.592Z,1.20
2024-02-26T03:50:11.523Z,1.10
2024-02-26T03:50:53.675Z,1.20
2024-02-26T03:51:35.604Z,1.10
2024-02-26T03:52:17.731Z,1.75
2024-02-26T03:52:59.666Z,1.30
2024-02-26T03:53:41.764Z,1.30
2024-02-26T03:54:23.779Z,1.40
2024-02-26T03:55:06.114Z,1.33
2024-02-26T03:55:48.979Z,1.15
2024-02-26T03:56:31.703Z,1.10
2024-02-26T03:57:13.767Z,1.20
2024-02-26T03:57:55.661Z,1.05
2024-02-26T03:58:39.869Z,1.20
2024-02-26T03:59:23.092Z,1.20
2024-02-26T04:00:05.829Z,1.42
2024-02-26T04:00:48.989Z,1.75
2024-02-26T04:01:31.071Z,1.35
2024-02-26T04:02:12.938Z,1.40
2024-02-26T04:02:54.803Z,1.30
2024-02-26T04:03:36.655Z,1.25
2024-02-26T04:04:18.774Z,1.30
2024-02-26T04:05:00.921Z,1.50
2024-02-26T04:05:43.097Z,1.80
2024-02-26T04:06:25.146Z,1.73
2024-02-26T04:07:07.538Z,1.40
2024-02-26T04:07:49.695Z,1.20
2024-02-26T04:08:32.130Z,1.20
2024-02-26T04:09:17.621Z,1.40
2024-02-26T04:10:00.592Z,1.60
2024-02-26T04:10:43.593Z,1.40
2024-02-26T04:11:25.651Z,1.50
2024-02-26T04:12:07.821Z,1.42
2024-02-26T04:12:49.632Z,1.30
2024-02-26T04:13:31.860Z,1.20
2024-02-26T04:14:14.161Z,1.27
2024-02-26T04:14:56.006Z,1.30
2024-02-26T04:15:38.536Z,1.20
2024-02-26T04:16:22.892Z,1.50
2024-02-26T04:17:07.650Z,1.42
2024-02-26T04:17:50.009Z,1.40
2024-02-26T04:18:32.642Z,1.40
2024-02-26T04:19:14.865Z,1.33
2024-02-26T04:19:56.763Z,1.20
2024-02-26T04:20:38.789Z,1.20
2024-02-26T04:21:20.704Z,1.27
2024-02-26T04:22:02.816Z,1.40
2024-02-26T04:22:46.859Z,1.60
2024-02-26T04:23:28.824Z,1.40
2024-02-26T04:24:11.027Z,1.23
2024-02-26T04:24:52.972Z,1.58
2024-02-26T04:25:37.594Z,1.70
2024-02-26T04:26:19.780Z,1.88
2024-02-26T04:27:04.346Z,1.70
2024-02-26T04:27:46.130Z,1.50
2024-02-26T04:28:30.100Z,1.50
2024-02-26T04:29:12.259Z,1.60
2024-02-26T04:29:54.040Z,1.55
2024-02-26T04:30:36.252Z,1.60
2024-02-26T04:31:18.047Z,1.58
2024-02-26T04:32:00.536Z,1.70
2024-02-26T04:32:42.531Z,1.40
2024-02-26T04:33:24.835Z,1.60
2024-02-26T04:34:07.078Z,1.42
2024-02-26T04:34:49.233Z,1.30
2024-02-26T04:35:31.190Z,1.67
2024-02-26T04:36:18.819Z,1.40
2024-02-26T04:37:00.701Z,1.35
2024-02-26T04:37:42.785Z,1.40
2024-02-26T04:38:24.646Z,1.40
2024-02-26T04:39:07.598Z,1.45
2024-02-26T04:39:51.267Z,1.40
2024-02-26T04:40:33.658Z,1.45
2024-02-26T04:41:15.648Z,1.50
2024-02-26T04:41:57.813Z,1.50
2024-02-26T04:42:39.674Z,1.33
2024-02-26T04:43:23.808Z,1.58
2024-02-26T04:44:05.634Z,1.50
2024-02-26T04:44:47.752Z,1.60
2024-02-26T04:45:30.096Z,1.60
2024-02-26T04:46:12.484Z,1.50
2024-02-26T04:46:54.747Z,1.70
2024-02-26T04:47:36.921Z,1.55
2024-02-26T04:48:18.902Z,1.42
2024-02-26T04:49:01.185Z,1.48
2024-02-26T04:49:43.232Z,1.40
2024-02-26T04:50:25.467Z,1.30
2024-02-26T04:51:07.797Z,1.40
2024-02-26T04:51:50.056Z,1.70
2024-02-26T04:52:31.848Z,1.40
2024-02-26T04:53:14.025Z,1.42
2024-02-26T04:53:56.085Z,1.70
2024-02-26T04:54:38.548Z,1.50
2024-02-26T04:55:22.950Z,1.60
2024-02-26T04:56:05.553Z,1.60
2024-02-26T04:56:49.817Z,1.50
2024-02-26T04:57:31.793Z,1.50
2024-02-26T04:58:13.684Z,1.60
2024-02-26T04:58:55.507Z,1.42
2024-02-26T04:59:37.970Z,1.40
2024-02-26T05:00:19.867Z,1.73
2024-02-26T05:01:01.842Z,3.20
2024-02-26T05:01:44.017Z,3.47
2024-02-26T05:02:26.231Z,3.75
2024-02-26T05:03:09.043Z,3.28
2024-02-26T05:03:51.006Z,2.80
2024-02-26T05:04:32.904Z,2.80
2024-02-26T05:05:15.022Z,2.05
2024-02-26T05:05:59.336Z,2.15
2024-02-26T05:06:41.648Z,2.00
2024-02-26T05:07:24.052Z,2.40
2024-02-26T05:08:07.029Z,1.85
2024-02-26T05:08:49.650Z,1.60
2024-02-26T05:09:31.819Z,1.63
2024-02-26T05:10:13.944Z,1.73
2024-02-26T05:10:56.012Z,1.80
2024-02-26T05:11:39.358Z,1.58
2024-02-26T05:12:22.514Z,1.60
2024-02-26T05:13:07.480Z,1.90
2024-02-26T05:13:50.046Z,1.40
2024-02-26T05:14:34.386Z,1.40
2024-02-26T05:15:19.817Z,1.30
2024-02-26T05:16:01.848Z,1.80
2024-02-26T05:16:43.703Z,1.80
2024-02-26T05:17:26.627Z,1.70
2024-02-26T05:18:09.291Z,1.80
2024-02-26T05:18:51.722Z,1.73
2024-02-26T05:19:33.768Z,1.60
2024-02-26T05:20:15.681Z,1.60
2024-02-26T05:20:57.598Z,1.40
2024-02-26T05:21:39.442Z,1.75
2024-02-26T05:22:21.492Z,1.85
2024-02-26T05:23:04.909Z,1.60
2024-02-26T05:23:46.886Z,2.00
2024-02-26T05:24:28.917Z,2.10
2024-02-26T05:25:10.883Z,1.90
2024-02-26T05:25:52.761Z,1.60
2024-02-26T05:26:34.664Z,1.50
2024-02-26T05:27:16.791Z,1.88
2024-02-26T05:27:58.592Z,1.70
2024-02-26T05:28:40.739Z,1.60
2024-02-26T05:29:22.576Z,2.00
2024-02-26T05:30:05.043Z,1.63
2024-02-26T05:30:47.317Z,1.70
2024-02-26T05:31:29.929Z,1.80
2024-02-26T05:32:12.191Z,1.90
2024-02-26T05:32:54.111Z,1.70
2024-02-26T05:33:36.360Z,1.88
2024-02-26T05:34:18.647Z,1.88
2024-02-26T05:35:01.315Z,2.03
2024-02-26T05:35:43.477Z,2.08
2024-02-26T05:36:26.738Z,1.90
2024-02-26T05:37:08.825Z,1.65
2024-02-26T05:37:50.735Z,1.67
2024-02-26T05:38:32.994Z,2.00
2024-02-26T05:39:18.554Z,1.80
2024-02-26T05:40:05.670Z,1.70
2024-02-26T05:40:48.525Z,1.70
2024-02-26T05:41:30.691Z,1.80
2024-02-26T05:42:12.574Z,2.00
2024-02-26T05:42:54.710Z,1.70
2024-02-26T05:43:36.989Z,2.10
2024-02-26T05:44:19.069Z,1.90
2024-02-26T05:45:06.275Z,1.70
2024-02-26T05:45:48.308Z,1.50
2024-02-26T05:46:32.739Z,1.48
2024-02-26T05:47:14.926Z,1.52
2024-02-26T05:47:57.217Z,1.77
2024-02-26T05:48:40.073Z,1.90
2024-02-26T05:49:25.643Z,2.05
2024-02-26T05:50:08.092Z,1.58
2024-02-26T05:50:50.235Z,2.00
2024-02-26T05:51:32.119Z,1.83
2024-02-26T05:52:14.283Z,1.90
2024-02-26T05:52:56.227Z,1.90
2024-02-26T05:53:38.090Z,1.60
2024-02-26T05:54:22.813Z,1.60
2024-02-26T05:55:05.597Z,1.85
2024-02-26T05:55:47.484Z,2.03
2024-02-26T05:56:29.572Z,1.90
2024-02-26T05:57:12.650Z,2.10
2024-02-26T05:57:54.786Z,2.17
2024-02-26T05:58:37.121Z,1.98
2024-02-26T05:59:19.661Z,1.77
2024-02-26T06:00:04.924Z,1.90
2024-02-26T06:00:46.941Z,2.00
2024-02-26T06:01:29.149Z,2.17
2024-02-26T06:02:11.123Z,2.30
2024-02-26T06:02:52.961Z,2.00
2024-02-26T06:03:34.961Z,1.80
2024-02-26T06:04:18.806Z,1.77
2024-02-26T06:05:00.856Z,1.80
2024-02-26T06:05:44.473Z,2.15
2024-02-26T06:06:27.043Z,2.03
2024-02-26T06:07:09.053Z,1.70
2024-02-26T06:07:51.118Z,1.98
2024-02-26T06:08:32.906Z,2.25
2024-02-26T06:09:14.870Z,1.90
2024-02-26T06:09:56.691Z,1.60
2024-02-26T06:10:40.599Z,1.60
2024-02-26T06:11:24.005Z,1.75
2024-02-26T06:12:06.541Z,1.60
2024-02-26T06:12:49.080Z,1.73
2024-02-26T06:13:32.610Z,1.75
2024-02-26T06:14:15.615Z,1.63
2024-02-26T06:14:57.695Z,2.13
2024-02-26T06:15:39.931Z,1.92
2024-02-26T06:16:21.727Z,1.80
2024-02-26T06:17:03.884Z,1.80
2024-02-26T06:17:45.948Z,1.90
2024-02-26T06:18:28.070Z,2.00
2024-02-26T06:19:13.055Z,1.95
2024-02-26T06:19:55.807Z,1.90
2024-02-26T06:20:37.798Z,1.83
2024-02-26T06:21:20.123Z,2.00
2024-02-26T06:22:02.581Z,2.28
2024-02-26T06:22:44.686Z,2.15
2024-02-26T06:23:27.078Z,2.10
2024-02-26T06:24:08.997Z,2.03
2024-02-26T06:24:51.142Z,2.20
2024-02-26T06:25:33.354Z,2.20
2024-02-26T06:26:15.526Z,2.30
2024-02-26T06:26:57.726Z,2.05
2024-02-26T06:27:39.932Z,2.20
2024-02-26T06:28:22.303Z,2.20
2024-02-26T06:29:04.156Z,2.15
2024-02-26T06:29:46.158Z,2.45
2024-02-26T06:30:28.048Z,2.10
2024-02-26T06:31:12.809Z,2.20
2024-02-26T06:31:54.861Z,2.13
2024-02-26T06:32:36.711Z,2.40
2024-02-26T06:33:18.785Z,2.33
2024-02-26T06:34:01.135Z,1.92
2024-02-26T06:34:43.397Z,1.77
2024-02-26T06:35:25.683Z,1.88
2024-02-26T06:36:07.771Z,2.20
2024-02-26T06:36:49.768Z,2.00
2024-02-26T06:37:31.998Z,2.20
2024-02-26T06:38:14.938Z,2.45
2024-02-26T06:38:59.050Z,2.10
2024-02-26T06:39:42.180Z,2.50
2024-02-26T06:40:24.040Z,2.20
2024-02-26T06:41:06.524Z,2.20
2024-02-26T06:41:49.191Z,2.20
2024-02-26T06:42:31.648Z,1.83
2024-02-26T06:43:16.252Z,2.15
2024-02-26T06:43:58.201Z,2.75
2024-02-26T06:44:40.213Z,2.40
2024-02-26T06:45:22.521Z,2.10
2024-02-26T06:46:04.605Z,2.10
2024-02-26T06:46:46.421Z,2.10
2024-02-26T06:47:28.328Z,2.50
2024-02-26T06:48:10.932Z,2.28
2024-02-26T06:48:55.653Z,2.30
2024-02-26T06:49:38.256Z,2.30
2024-02-26T06:50:20.228Z,2.40
2024-02-26T06:51:02.102Z,2.53
2024-02-26T06:51:43.985Z,2.42
2024-02-26T06:52:26.803Z,2.50
2024-02-26T06:53:08.822Z,3.05
2024-02-26T06:53:51.302Z,2.35
2024-02-26T06:54:33.761Z,2.50
2024-02-26T06:55:16.115Z,2.65
2024-02-26T06:55:58.731Z,2.17
2024-02-26T06:56:40.741Z,2.50
2024-02-26T06:57:23.072Z,2.30
2024-02-26T06:58:05.757Z,2.35
2024-02-26T06:58:47.631Z,2.30
2024-02-26T06:59:29.909Z,2.20
2024-02-26T07:00:16.204Z,2.80
2024-02-26T07:00:58.757Z,3.13
2024-02-26T07:01:43.855Z,3.00
2024-02-26T07:02:25.801Z,2.97
2024-02-26T07:03:08.088Z,3.00
2024-02-26T07:03:50.166Z,2.90
2024-02-26T07:04:35.106Z,2.75
2024-02-26T07:05:17.170Z,2.55
2024-02-26T07:05:59.134Z,2.70
2024-02-26T07:06:41.274Z,3.00
2024-02-26T07:07:24.788Z,2.83
2024-02-26T07:08:08.187Z,2.90
2024-02-26T07:08:50.490Z,2.50
2024-02-26T07:09:32.425Z,2.80
2024-02-26T07:10:14.464Z,2.80
2024-02-26T07:10:56.407Z,2.70
2024-02-26T07:11:38.757Z,2.60
2024-02-26T07:12:22.646Z,3.10
2024-02-26T07:13:04.801Z,2.90
2024-02-26T07:13:47.332Z,2.70
2024-02-26T07:14:29.421Z,3.35
2024-02-26T07:15:11.948Z,2.80
2024-02-26T07:15:54.004Z,3.15
2024-02-26T07:16:36.223Z,3.60
2024-02-26T07:17:18.117Z,3.67
2024-02-26T07:18:04.217Z,3.20
2024-02-26T07:18:46.342Z,3.15
2024-02-26T07:19:28.258Z,3.10
2024-02-26T07:20:11.028Z,2.90
2024-02-26T07:20:53.288Z,3.10
2024-02-26T07:21:35.324Z,3.17
2024-02-26T07:22:17.157Z,3.22
2024-02-26T07:22:59.618Z,2.92
2024-02-26T07:23:41.840Z,2.78
2024-02-26T07:24:24.384Z,2.85
2024-02-26T07:25:09.091Z,2.60
2024-02-26T07:25:56.338Z,2.75
2024-02-26T07:26:38.557Z,3.25
2024-02-26T07:27:22.462Z,3.55
2024-02-26T07:28:04.660Z,3.03
2024-02-26T07:28:46.933Z,2.95
2024-02-26T07:29:29.132Z,2.60
2024-02-26T07:30:11.911Z,3.00
2024-02-26T07:30:53.772Z,2.97
2024-02-26T07:31:35.550Z,2.80
2024-02-26T07:32:17.483Z,2.60
2024-02-26T07:32:59.356Z,2.65
2024-02-26T07:33:41.461Z,2.80
2024-02-26T07:34:28.693Z,2.90
2024-02-26T07:35:11.153Z,3.00
2024-02-26T07:35:54.939Z,2.92
2024-02-26T07:36:37.234Z,3.10
2024-02-26T07:37:18.991Z,2.70
2024-02-26T07:38:00.895Z,2.60
2024-02-26T07:38:44.105Z,2.65
2024-02-26T07:39:26.325Z,2.80
2024-02-26T07:40:09.330Z,2.90
2024-02-26T07:40:56.402Z,2.90
2024-02-26T07:41:47.862Z,2.70
2024-02-26T07:42:29.982Z,2.70
2024-02-26T07:43:11.863Z,3.50
2024-02-26T07:43:53.827Z,2.78
2024-02-26T07:44:35.610Z,2.90
2024-02-26T07:45:19.622Z,2.67
2024-02-26T07:46:01.429Z,2.70
2024-02-26T07:46:43.213Z,2.53
2024-02-26T07:47:25.070Z,2.70
2024-02-26T07:48:07.549Z,2.97
2024-02-26T07:48:49.559Z,2.60
2024-02-26T07:49:31.563Z,2.58
2024-02-26T07:50:13.687Z,2.50
2024-02-26T07:50:56.062Z,2.70
2024-02-26T07:51:38.279Z,3.22
2024-02-26T07:52:20.505Z,2.80
2024-02-26T07:53:02.359Z,2.70
2024-02-26T07:53:47.026Z,2.80
2024-02-26T07:54:28.949Z,2.30
2024-02-26T07:55:10.837Z,2.30
2024-02-26T07:55:52.633Z,2.70
2024-02-26T07:56:34.472Z,2.75
2024-02-26T07:57:18.465Z,2.60
2024-02-26T07:58:00.298Z,2.58
2024-02-26T07:58:42.139Z,2.58
2024-02-26T07:59:23.963Z,2.38
2024-02-26T08:00:10.331Z,2.38
2024-02-26T08:00:52.308Z,2.75
2024-02-26T08:01:34.893Z,2.50
2024-02-26T08:02:17.550Z,2.40
2024-02-26T08:02:59.651Z,2.60
2024-02-26T08:03:42.082Z,2.70
2024-02-26T08:04:23.964Z,2.50
2024-02-26T08:05:06.131Z,2.30
2024-02-26T08:05:48.569Z,2.20
2024-02-26T08:06:30.794Z,2.10
2024-02-26T08:07:13.609Z,3.15
2024-02-26T08:07:56.078Z,2.92
2024-02-26T08:08:37.960Z,2.30
2024-02-26T08:09:19.814Z,2.30
2024-02-26T08:10:01.651Z,2.40
2024-02-26T08:10:43.474Z,2.40
2024-02-26T08:11:25.357Z,2.20
2024-02-26T08:12:07.600Z,2.25
2024-02-26T08:12:49.465Z,2.50
2024-02-26T08:13:31.252Z,2.20
2024-02-26T08:14:13.043Z,2.55
2024-02-26T08:14:54.946Z,2.42
2024-02-26T08:15:38.682Z,2.20
2024-02-26T08:16:20.546Z,2.20
2024-02-26T08:17:02.777Z,2.50
2024-02-26T08:17:44.747Z,1.98
2024-02-26T08:18:26.836Z,2.30
2024-02-26T08:19:08.876Z,2.30
2024-02-26T08:19:51.176Z,2.35
2024-02-26T08:20:33.384Z,2.40
2024-02-26T08:21:15.243Z,2.30
2024-02-26T08:21:57.129Z,2.30
2024-02-26T08:22:40.349Z,2.63
2024-02-26T08:23:22.182Z,2.40
2024-02-26T08:24:04.280Z,2.42
2024-02-26T08:24:46.315Z,2.78
2024-02-26T08:25:28.244Z,2.55
2024-02-26T08:26:12.292Z,3.10
2024-02-26T08:26:54.489Z,2.92
2024-02-26T08:27:36.327Z,2.70
2024-02-26T08:28:19.182Z,2.35
2024-02-26T08:29:01.012Z,2.80
2024-02-26T08:29:42.912Z,2.60
2024-02-26T08:30:24.710Z,2.20
2024-02-26T08:31:06.733Z,2.28
2024-02-26T08:31:49.256Z,2.50
2024-02-26T08:32:31.082Z,2.20
2024-02-26T08:33:14.669Z,2.03
2024-02-26T08:33:56.891Z,2.80
2024-02-26T08:34:38.932Z,2.50
2024-02-26T08:35:21.324Z,2.40
2024-02-26T08:36:07.555Z,2.85
2024-02-26T08:36:50.242Z,2.72
2024-02-26T08:37:32.109Z,2.60
2024-02-26T08:38:13.969Z,2.60
2024-02-26T08:38:55.829Z,2.50
2024-02-26T08:39:37.703Z,2.53
2024-02-26T08:40:20.821Z,2.42
2024-02-26T08:41:06.580Z,2.63
2024-02-26T08:41:48.457Z,2.90
2024-02-26T08:42:30.449Z,2.30
2024-02-26T08:43:12.483Z,2.30
2024-02-26T08:43:55.814Z,2.60
2024-02-26T08:44:38.141Z,2.20
2024-02-26T08:45:20.073Z,2.60
2024-02-26T08:46:02.303Z,2.40
2024-02-26T08:46:44.210Z,2.40
2024-02-26T08:47:26.034Z,2.30
2024-02-26T08:48:08.959Z,2.60
2024-02-26T08:48:51.482Z,2.20
2024-02-26T08:49:33.900Z,2.40
2024-02-26T08:50:15.995Z,2.50
2024-02-26T08:50:57.904Z,2.40
2024-02-26T08:51:44.786Z,2.40
2024-02-26T08:52:27.016Z,2.33
2024-02-26T08:53:09.037Z,2.30
2024-02-26T08:53:52.245Z,2.42
2024-02-26T08:54:34.172Z,2.25
2024-02-26T08:55:16.031Z,2.47
2024-02-26T08:55:57.821Z,2.33
2024-02-26T08:56:39.706Z,2.47
2024-02-26T08:57:21.629Z,2.80
2024-02-26T08:58:03.702Z,2.63
2024-02-26T08:58:47.501Z,2.15
2024-02-26T08:59:29.440Z,2.30
2024-02-26T09:00:12.477Z,2.40
2024-02-26T09:00:54.479Z,2.60
2024-02-26T09:01:36.821Z,2.53
2024-02-26T09:02:20.774Z,2.60
2024-02-26T09:03:05.639Z,2.40
2024-02-26T09:03:47.989Z,2.38
2024-02-26T09:04:30.276Z,2.30
2024-02-26T09:05:12.673Z,2.45
2024-02-26T09:05:54.988Z,2.40
2024-02-26T09:06:36.880Z,2.80
2024-02-26T09:07:18.736Z,3.20
2024-02-26T09:08:00.585Z,3.00
2024-02-26T09:08:42.415Z,2.50
2024-02-26T09:09:26.214Z,2.53
2024-02-26T09:10:11.708Z,2.75
2024-02-26T09:10:54.011Z,2.70
2024-02-26T09:11:35.872Z,2.33
2024-02-26T09:12:17.987Z,3.10
2024-02-26T09:13:00.043Z,2.80
2024-02-26T09:13:41.961Z,2.40
2024-02-26T09:14:24.904Z,2.60
2024-02-26T09:15:09.319Z,2.40
2024-02-26T09:15:51.737Z,2.83
2024-02-26T09:16:33.575Z,2.80
2024-02-26T09:17:15.433Z,3.10
2024-02-26T09:17:57.509Z,2.80
2024-02-26T09:18:40.040Z,2.85
2024-02-26T09:19:22.066Z,2.65
2024-02-26T09:20:05.113Z,2.72
2024-02-26T09:20:47.414Z,2.40
2024-02-26T09:21:29.424Z,2.40
2024-02-26T09:22:12.784Z,2.65
2024-02-26T09:22:55.666Z,2.90
2024-02-26T09:23:37.807Z,2.90
2024-02-26T09:24:19.781Z,2.88
2024-02-26T09:25:01.652Z,3.00
2024-02-26T09:25:43.446Z,3.08
2024-02-26T09:26:25.232Z,3.10
2024-02-26T09:27:07.455Z,2.80